createdAt,value
2019-03-06T00:01:40.928Z,72.64
2019-03-06T00:04:10.142Z,72.63
2019-03-06T00:06:39.353Z,72.94
2019-03-06T00:09:08.958Z,73.15
2019-03-06T00:11:38.135Z,73.11
2019-03-06T00:14:07.387Z,73.34
2019-03-06T00:16:36.606Z,73.22
2019-03-06T00:19:05.807Z,73.12
2019-03-06T00:21:34.987Z,72.95
2019-03-06T00:24:04.314Z,72.92
2019-03-06T00:26:33.451Z,72.97
2019-03-06T00:29:02.649Z,72.83
2019-03-06T00:31:31.844Z,72.91
2019-03-06T00:34:01.055Z,72.96
2019-03-06T00:36:31.530Z,72.82
2019-03-06T00:39:00.727Z,72.75
2019-03-06T00:41:44.636Z,72.65
2019-03-06T00:44:13.853Z,72.72
2019-03-06T00:46:43.055Z,73.50
2019-03-06T00:49:12.247Z,73.50
2019-03-06T00:51:41.452Z,73.57
2019-03-06T00:54:10.830Z,73.56
2019-03-06T00:56:40.042Z,74.08
2019-03-06T00:59:09.238Z,73.99
2019-03-06T01:01:38.408Z,74.09
2019-03-06T01:04:07.694Z,74.06
2019-03-06T01:06:36.954Z,73.92
2019-03-06T01:09:07.362Z,73.79
2019-03-06T01:11:36.645Z,73.65
2019-03-06T01:14:05.823Z,73.73
2019-03-06T01:16:35.047Z,73.79
2019-03-06T01:19:04.263Z,74.19
2019-03-06T01:21:33.441Z,74.22
2019-03-06T01:24:02.627Z,74.07
2019-03-06T01:26:31.837Z,74.41
2019-03-06T01:29:01.007Z,74.36
2019-03-06T01:31:30.211Z,74.58
2019-03-06T01:34:11.049Z,74.25
2019-03-06T01:37:08.239Z,74.29
2019-03-06T01:39:56.364Z,74.57
2019-03-06T01:42:41.995Z,74.80
2019-03-06T01:45:12.196Z,74.79
2019-03-06T01:47:41.381Z,75.38
2019-03-06T01:50:13.225Z,75.96
2019-03-06T01:52:42.466Z,75.59
2019-03-06T01:55:13.678Z,75.55
2019-03-06T01:57:42.908Z,75.99
2019-03-06T02:00:15.340Z,75.89
2019-03-06T02:02:44.564Z,75.62
2019-03-06T02:05:14.032Z,75.58
2019-03-06T02:07:43.448Z,75.63
2019-03-06T02:10:13.334Z,75.67
2019-03-06T02:12:42.528Z,75.99
2019-03-06T02:15:33.471Z,77.40
2019-03-06T02:18:02.647Z,76.69
2019-03-06T02:20:31.828Z,76.67
2019-03-06T02:23:01.045Z,76.95
2019-03-06T02:25:30.400Z,77.16
2019-03-06T02:27:59.594Z,76.98
2019-03-06T02:30:30.562Z,77.11
2019-03-06T02:32:59.789Z,77.04
2019-03-06T02:35:29.370Z,76.63
2019-03-06T02:37:58.652Z,76.21
2019-03-06T02:40:27.847Z,76.42
2019-03-06T02:42:57.061Z,76.44
2019-03-06T02:45:26.250Z,76.12
2019-03-06T02:47:55.447Z,76.36
2019-03-06T02:50:25.008Z,76.84
2019-03-06T02:52:54.206Z,75.96
2019-03-06T02:55:23.462Z,76.80
2019-03-06T02:57:58.120Z,76.96
2019-03-06T03:00:51.242Z,76.68
2019-03-06T03:03:48.408Z,76.40
2019-03-06T03:06:23.148Z,76.61
2019-03-06T03:08:51.426Z,76.12
2019-03-06T03:11:20.674Z,76.37
2019-03-06T03:13:49.884Z,76.72
2019-03-06T03:16:19.084Z,76.85
2019-03-06T03:18:48.296Z,76.94
2019-03-06T03:21:17.492Z,77.43
2019-03-06T03:23:46.716Z,76.81
2019-03-06T03:26:15.917Z,78.21
2019-03-06T03:28:45.129Z,78.07
2019-03-06T03:31:14.282Z,77.68
2019-03-06T03:33:43.514Z,77.56
2019-03-06T03:36:12.706Z,77.27
2019-03-06T03:38:41.919Z,77.25
2019-03-06T03:41:11.104Z,76.89
2019-03-06T03:43:40.489Z,77.21
2019-03-06T03:46:09.741Z,77.00
2019-03-06T03:48:38.983Z,77.08
2019-03-06T03:51:08.198Z,77.20
2019-03-06T03:53:37.401Z,76.99
2019-03-06T03:56:06.765Z,76.89
2019-03-06T03:58:35.966Z,76.62
2019-03-06T04:01:05.409Z,76.59
2019-03-06T04:03:34.599Z,76.32
2019-03-06T04:06:03.814Z,76.23
2019-03-06T04:08:33.280Z,76.34
2019-03-06T04:11:02.492Z,76.43
2019-03-06T04:13:31.695Z,76.40
2019-03-06T04:16:00.947Z,76.27
2019-03-06T04:18:30.158Z,76.30
2019-03-06T04:20:59.328Z,76.53
2019-03-06T04:23:28.544Z,76.61
2019-03-06T04:25:57.721Z,76.23
2019-03-06T04:28:28.066Z,76.17
2019-03-06T04:30:57.401Z,76.36
2019-03-06T04:33:26.733Z,76.24
2019-03-06T04:35:55.922Z,76.39
2019-03-06T04:38:25.140Z,76.35
2019-03-06T04:40:54.382Z,76.45
2019-03-06T04:43:23.576Z,76.63
2019-03-06T04:45:52.774Z,76.74
2019-03-06T04:48:22.014Z,76.66
2019-03-06T04:50:51.196Z,77.20
2019-03-06T04:53:20.430Z,77.35
2019-03-06T04:55:49.635Z,77.59
2019-03-06T04:58:18.838Z,77.76
2019-03-06T05:00:48.034Z,78.04
2019-03-06T05:03:17.273Z,78.36
2019-03-06T05:05:46.484Z,78.28
2019-03-06T05:08:15.684Z,78.51
2019-03-06T05:10:44.924Z,78.71
2019-03-06T05:13:14.147Z,78.68
2019-03-06T05:15:43.375Z,78.43
2019-03-06T05:18:31.505Z,78.60
2019-03-06T05:21:00.773Z,78.88
2019-03-06T05:23:29.961Z,78.67
2019-03-06T05:25:59.165Z,78.99
2019-03-06T05:28:28.366Z,78.92
2019-03-06T05:30:57.569Z,79.03
2019-03-06T05:33:28.732Z,79.02
2019-03-06T05:36:42.778Z,79.00
2019-03-06T05:39:12.347Z,79.26
2019-03-06T05:41:41.593Z,79.32
2019-03-06T05:44:10.818Z,79.35
2019-03-06T05:46:40.034Z,79.47
2019-03-06T05:49:09.506Z,79.74
2019-03-06T05:51:38.698Z,79.81
2019-03-06T05:54:07.914Z,79.66
2019-03-06T05:56:37.111Z,79.65
2019-03-06T05:59:06.342Z,79.34
2019-03-06T06:01:35.616Z,79.41
2019-03-06T06:04:04.784Z,79.80
2019-03-06T06:06:34.012Z,79.61
2019-03-06T06:09:03.636Z,79.97
2019-03-06T06:11:32.792Z,79.98
2019-03-06T06:14:01.976Z,79.85
2019-03-06T06:16:31.177Z,79.86
2019-03-06T06:19:01.755Z,79.84
2019-03-06T06:21:51.853Z,79.84
2019-03-06T06:24:26.731Z,79.83
2019-03-06T06:26:55.955Z,79.59
2019-03-06T06:29:25.176Z,79.60
2019-03-06T06:31:54.521Z,79.24
2019-03-06T06:34:23.717Z,79.52
2019-03-06T06:36:52.949Z,79.52
2019-03-06T06:39:22.150Z,79.61
2019-03-06T06:41:51.336Z,79.36
2019-03-06T06:44:20.581Z,79.27
2019-03-06T06:46:49.811Z,79.10
2019-03-06T06:49:19.000Z,78.84
2019-03-06T06:52:46.963Z,78.74
2019-03-06T06:55:48.261Z,78.47
2019-03-06T06:58:57.060Z,78.49
2019-03-06T07:02:14.357Z,78.40
2019-03-06T07:05:10.564Z,78.47
2019-03-06T07:07:47.130Z,78.33
2019-03-06T07:10:34.051Z,78.28
2019-03-06T07:13:25.000Z,78.06
2019-03-06T07:16:13.319Z,78.01
2019-03-06T07:19:01.466Z,78.01
2019-03-06T07:21:44.422Z,77.59
2019-03-06T07:24:22.813Z,77.71
2019-03-06T07:27:15.386Z,77.55
2019-03-06T07:30:06.697Z,77.66
2019-03-06T07:32:53.683Z,77.84
2019-03-06T07:36:18.979Z,77.55
2019-03-06T07:38:50.879Z,77.47
2019-03-06T07:41:41.841Z,77.41
2019-03-06T07:44:30.670Z,77.17
2019-03-06T07:47:21.763Z,77.10
2019-03-06T07:50:12.205Z,76.75
2019-03-06T07:53:00.366Z,76.43
2019-03-06T07:55:37.281Z,75.74
2019-03-06T07:58:55.937Z,74.99
2019-03-06T08:01:27.890Z,74.75
2019-03-06T08:04:11.857Z,73.81
2019-03-06T08:06:43.598Z,73.37
2019-03-06T08:09:17.088Z,73.06
2019-03-06T08:12:00.770Z,72.71
2019-03-06T08:14:47.476Z,72.62
2019-03-06T08:17:27.894Z,72.34
2019-03-06T08:20:16.222Z,71.94
2019-03-06T08:23:02.250Z,71.45
2019-03-06T08:25:46.778Z,71.34
2019-03-06T08:28:16.012Z,71.55
2019-03-06T08:31:16.415Z,71.22
2019-03-06T08:33:45.715Z,70.81
2019-03-06T08:36:14.938Z,69.43
2019-03-06T08:38:44.254Z,69.81
2019-03-06T08:41:13.515Z,68.73
2019-03-06T08:43:42.725Z,68.37
2019-03-06T08:46:33.691Z,68.15
2019-03-06T08:49:26.678Z,68.17
2019-03-06T08:52:06.209Z,68.08
2019-03-06T08:55:03.572Z,68.65
2019-03-06T08:57:57.544Z,69.03
2019-03-06T09:01:01.051Z,69.43
2019-03-06T09:03:59.555Z,69.35
2019-03-06T09:06:47.678Z,68.82
2019-03-06T09:09:34.632Z,68.11
2019-03-06T09:12:31.844Z,67.36
2019-03-06T09:15:31.963Z,66.63
2019-03-06T09:18:29.073Z,65.77
2019-03-06T09:21:17.227Z,64.47
2019-03-06T09:24:14.493Z,64.02
2019-03-06T09:27:02.647Z,64.26
2019-03-06T09:29:39.982Z,63.33
2019-03-06T09:32:34.017Z,62.31
2019-03-06T09:35:22.202Z,60.16
2019-03-06T09:38:14.316Z,59.64
2019-03-06T09:40:58.374Z,60.00
2019-03-06T09:43:44.781Z,59.15
2019-03-06T09:46:22.850Z,58.83
2019-03-06T09:49:11.772Z,60.08
2019-03-06T09:52:08.452Z,59.92
2019-03-06T09:54:56.654Z,59.78
2019-03-06T09:57:43.297Z,59.89
2019-03-06T10:00:25.836Z,60.71
2019-03-06T10:03:14.603Z,61.41
2019-03-06T10:06:20.986Z,61.65
2019-03-06T10:09:14.855Z,61.64
2019-03-06T10:12:08.737Z,61.40
2019-03-06T10:14:43.560Z,61.69
2019-03-06T10:17:24.437Z,61.67
2019-03-06T10:19:56.683Z,60.52
2019-03-06T10:22:25.913Z,60.04
2019-03-06T10:24:55.751Z,59.58
2019-03-06T10:27:25.081Z,59.62
2019-03-06T10:29:54.267Z,59.40
2019-03-06T10:32:23.528Z,58.85
2019-03-06T10:34:54.922Z,58.94
2019-03-06T10:37:23.679Z,59.07
2019-03-06T10:39:52.920Z,58.98
2019-03-06T10:42:22.114Z,58.94
2019-03-06T10:44:51.386Z,59.30
2019-03-06T10:47:20.577Z,59.83
2019-03-06T10:49:49.807Z,59.21
2019-03-06T10:52:19.002Z,58.37
2019-03-06T10:54:48.228Z,57.87
2019-03-06T10:57:17.435Z,57.18
2019-03-06T10:59:46.651Z,57.75
2019-03-06T11:02:15.840Z,56.69
2019-03-06T11:04:52.594Z,56.82
2019-03-06T11:07:22.498Z,56.41
2019-03-06T11:09:51.700Z,56.69
2019-03-06T11:12:20.906Z,55.65
2019-03-06T11:14:50.125Z,55.30
2019-03-06T11:17:19.545Z,55.41
2019-03-06T11:19:49.241Z,55.65
2019-03-06T11:22:18.660Z,55.86
2019-03-06T11:24:48.016Z,55.44
2019-03-06T11:27:17.273Z,54.27
2019-03-06T11:29:46.509Z,54.49
2019-03-06T11:32:15.815Z,53.62
2019-03-06T11:34:45.425Z,53.62
2019-03-06T11:37:15.231Z,53.09
2019-03-06T11:39:44.425Z,53.36
2019-03-06T11:42:13.626Z,53.45
2019-03-06T11:44:42.831Z,52.79
2019-03-06T11:47:12.324Z,52.25
2019-03-06T11:49:41.527Z,51.96
2019-03-06T11:52:10.761Z,52.05
2019-03-06T11:54:40.061Z,51.59
2019-03-06T11:57:09.375Z,51.86
2019-03-06T11:59:38.589Z,52.25
2019-03-06T12:02:07.908Z,51.52
2019-03-06T12:04:37.287Z,50.51
2019-03-06T12:07:06.754Z,50.56
2019-03-06T12:09:35.999Z,49.17
2019-03-06T12:12:05.868Z,49.94
2019-03-06T12:14:35.108Z,49.11
2019-03-06T12:17:04.332Z,48.44
2019-03-06T12:19:34.016Z,48.84
2019-03-06T12:22:03.213Z,49.21
2019-03-06T12:24:32.513Z,49.50
2019-03-06T12:27:01.711Z,49.17
2019-03-06T12:29:30.927Z,49.82
2019-03-06T12:32:00.245Z,49.28
2019-03-06T12:34:29.651Z,49.32
2019-03-06T12:36:58.861Z,47.41
2019-03-06T12:39:28.088Z,48.45
2019-03-06T12:41:58.820Z,47.60
2019-03-06T12:44:28.265Z,46.36
2019-03-06T12:46:58.483Z,46.50
2019-03-06T12:49:29.041Z,46.37
2019-03-06T12:51:58.243Z,46.82
2019-03-06T12:54:27.612Z,46.75
2019-03-06T12:56:56.830Z,46.07
2019-03-06T12:59:26.073Z,45.96
2019-03-06T13:01:55.280Z,45.42
2019-03-06T13:04:24.473Z,45.82
2019-03-06T13:06:53.680Z,45.84
2019-03-06T13:09:22.978Z,45.56
2019-03-06T13:11:52.201Z,46.32
2019-03-06T13:14:21.717Z,45.53
2019-03-06T13:16:51.036Z,45.71
2019-03-06T13:19:20.386Z,46.15
2019-03-06T13:21:49.700Z,45.80
2019-03-06T13:24:18.950Z,45.82
2019-03-06T13:26:48.196Z,45.90
2019-03-06T13:29:17.611Z,44.00
2019-03-06T13:31:46.819Z,44.24
2019-03-06T13:34:50.130Z,44.75
2019-03-06T13:37:12.161Z,44.46
2019-03-06T13:39:41.397Z,44.95
2019-03-06T13:42:10.628Z,44.43
2019-03-06T13:44:39.862Z,44.56
2019-03-06T13:47:09.138Z,45.03
2019-03-06T13:49:38.365Z,45.41
2019-03-06T13:52:07.619Z,45.28
2019-03-06T13:54:36.852Z,45.18
2019-03-06T13:57:06.159Z,44.66
2019-03-06T13:59:35.344Z,44.82
2019-03-06T14:02:04.683Z,45.42
2019-03-06T14:04:33.933Z,44.64
2019-03-06T14:07:03.248Z,44.07
2019-03-06T14:09:32.454Z,44.64
2019-03-06T14:12:01.735Z,44.39
2019-03-06T14:14:30.928Z,44.64
2019-03-06T14:17:00.185Z,44.69
2019-03-06T14:19:29.455Z,44.62
2019-03-06T14:21:58.667Z,44.02
2019-03-06T14:24:28.002Z,44.33
2019-03-06T14:26:57.230Z,45.05
2019-03-06T14:29:26.528Z,44.65
2019-03-06T14:31:55.764Z,44.46
2019-03-06T14:34:25.222Z,44.30
2019-03-06T14:36:54.686Z,44.38
2019-03-06T14:39:29.149Z,44.23
2019-03-06T14:41:59.560Z,44.25
2019-03-06T14:44:28.863Z,44.64
2019-03-06T14:46:58.282Z,44.30
2019-03-06T14:49:27.499Z,44.62
2019-03-06T14:51:56.816Z,45.07
2019-03-06T14:54:26.182Z,45.09
2019-03-06T14:56:55.540Z,45.16
2019-03-06T14:59:24.844Z,45.31
2019-03-06T15:01:54.071Z,45.53
2019-03-06T15:04:23.330Z,45.43
2019-03-06T15:06:52.513Z,45.64
2019-03-06T15:09:28.658Z,45.63
2019-03-06T15:11:57.896Z,46.20
2019-03-06T15:14:35.810Z,46.31
2019-03-06T15:16:58.263Z,46.70
2019-03-06T15:19:27.600Z,46.28
2019-03-06T15:21:56.931Z,46.44
2019-03-06T15:24:26.301Z,46.78
2019-03-06T15:26:55.530Z,46.91
2019-03-06T15:29:24.830Z,46.88
2019-03-06T15:31:54.376Z,46.69
2019-03-06T15:34:24.505Z,47.20
2019-03-06T15:36:53.869Z,47.06
2019-03-06T15:39:31.317Z,47.37
2019-03-06T15:42:02.389Z,47.60
2019-03-06T15:44:32.488Z,48.26
2019-03-06T15:47:01.711Z,48.39
2019-03-06T15:49:31.067Z,49.16
2019-03-06T15:52:00.375Z,48.97
2019-03-06T15:54:29.787Z,49.38
2019-03-06T15:56:59.415Z,48.97
2019-03-06T15:59:28.843Z,49.03
2019-03-06T16:01:58.094Z,48.90
2019-03-06T16:04:27.369Z,49.21
2019-03-06T16:06:56.742Z,48.51
2019-03-06T16:09:26.855Z,48.91
2019-03-06T16:11:56.285Z,48.85
2019-03-06T16:14:25.756Z,49.08
2019-03-06T16:16:54.998Z,48.95
2019-03-06T16:19:24.262Z,49.04
2019-03-06T16:21:53.458Z,49.06
2019-03-06T16:24:23.198Z,49.00
2019-03-06T16:26:52.418Z,49.09
2019-03-06T16:29:23.696Z,49.45
2019-03-06T16:31:52.872Z,49.51
2019-03-06T16:34:22.124Z,49.79
2019-03-06T16:36:51.577Z,50.07
2019-03-06T16:39:21.462Z,50.24
2019-03-06T16:41:50.745Z,49.77
2019-03-06T16:44:20.402Z,49.99
2019-03-06T16:46:49.764Z,49.97
2019-03-06T16:49:19.007Z,50.07
2019-03-06T16:51:49.847Z,49.71
2019-03-06T16:54:19.610Z,49.53
2019-03-06T16:56:48.905Z,49.72
2019-03-06T16:59:18.270Z,49.23
2019-03-06T17:01:47.558Z,50.22
2019-03-06T17:04:19.228Z,51.16
2019-03-06T17:06:48.708Z,51.44
2019-03-06T17:09:18.458Z,51.35
2019-03-06T17:11:48.011Z,52.01
2019-03-06T17:14:17.338Z,53.55
2019-03-06T17:16:46.935Z,54.31
2019-03-06T17:19:16.394Z,55.03
2019-03-06T17:21:45.837Z,55.75
2019-03-06T17:24:15.399Z,56.66
2019-03-06T17:26:44.939Z,57.55
2019-03-06T17:29:15.278Z,56.27
2019-03-06T17:31:44.709Z,57.50
2019-03-06T17:34:14.330Z,57.10
2019-03-06T17:36:44.026Z,57.74
2019-03-06T17:39:15.774Z,57.98
2019-03-06T17:41:45.080Z,58.53
2019-03-06T17:44:14.310Z,58.96
2019-03-06T17:46:43.691Z,57.58
2019-03-06T17:49:13.172Z,59.02
2019-03-06T17:51:42.513Z,59.09
2019-03-06T17:54:11.923Z,58.97
2019-03-06T17:56:41.910Z,58.87
2019-03-06T17:59:11.296Z,58.52
2019-03-06T18:01:40.755Z,58.48
2019-03-06T18:04:14.833Z,58.84
2019-03-06T18:06:44.374Z,58.52
2019-03-06T18:09:13.827Z,58.47
2019-03-06T18:11:43.080Z,59.52
2019-03-06T18:14:12.307Z,59.90
2019-03-06T18:16:41.526Z,60.33
2019-03-06T18:19:11.042Z,59.52
2019-03-06T18:21:40.445Z,60.93
2019-03-06T18:24:09.746Z,58.64
2019-03-06T18:26:39.537Z,60.08
2019-03-06T18:29:08.903Z,60.23
2019-03-06T18:31:38.243Z,60.09
2019-03-06T18:34:07.703Z,58.51
2019-03-06T18:36:37.099Z,59.02
2019-03-06T18:39:17.770Z,59.29
2019-03-06T18:41:47.343Z,58.30
2019-03-06T18:44:16.682Z,58.78
2019-03-06T18:46:46.425Z,59.27
2019-03-06T18:49:15.706Z,59.07
2019-03-06T18:51:45.043Z,59.79
2019-03-06T18:54:14.445Z,59.99
2019-03-06T18:56:43.917Z,59.17
2019-03-06T18:59:13.381Z,59.75
2019-03-06T19:01:42.826Z,57.69
2019-03-06T19:04:12.244Z,59.04
2019-03-06T19:06:41.738Z,59.27
2019-03-06T19:09:11.545Z,58.49
2019-03-06T19:11:40.981Z,58.69
2019-03-06T19:14:10.519Z,59.29
2019-03-06T19:16:39.831Z,59.74
2019-03-06T19:19:09.550Z,60.07
2019-03-06T19:21:39.042Z,60.76
2019-03-06T19:24:08.403Z,60.26
2019-03-06T19:26:37.997Z,60.42
2019-03-06T19:29:07.310Z,60.31
2019-03-06T19:31:36.567Z,60.18
2019-03-06T19:34:05.917Z,59.77
2019-03-06T19:36:35.527Z,60.16
2019-03-06T19:39:10.126Z,59.93
2019-03-06T19:41:39.393Z,59.73
2019-03-06T19:44:08.755Z,59.18
2019-03-06T19:46:38.035Z,57.47
2019-03-06T19:49:07.401Z,58.70
2019-03-06T19:51:36.751Z,59.56
2019-03-06T19:54:06.049Z,59.37
2019-03-06T19:56:35.788Z,59.89
2019-03-06T19:59:05.358Z,59.36
2019-03-06T20:01:34.868Z,58.27
2019-03-06T20:04:04.424Z,58.61
2019-03-06T20:06:33.745Z,59.09
2019-03-06T20:09:03.552Z,58.38
2019-03-06T20:11:34.841Z,57.95
2019-03-06T20:14:04.267Z,57.61
2019-03-06T20:16:34.124Z,57.23
2019-03-06T20:19:03.813Z,57.74
2019-03-06T20:21:33.639Z,57.87
2019-03-06T20:24:03.035Z,57.78
2019-03-06T20:26:32.441Z,58.41
2019-03-06T20:29:02.246Z,57.43
2019-03-06T20:31:32.172Z,57.15
2019-03-06T20:34:01.939Z,55.93
2019-03-06T20:36:31.618Z,55.89
2019-03-06T20:39:01.192Z,56.10
2019-03-06T20:41:30.756Z,56.35
2019-03-06T20:44:00.871Z,56.40
2019-03-06T20:46:30.306Z,56.68
2019-03-06T20:48:59.563Z,56.83
2019-03-06T20:51:29.836Z,57.33
2019-03-06T20:54:00.899Z,56.94
2019-03-06T20:56:30.305Z,57.90
2019-03-06T20:58:59.677Z,57.88
2019-03-06T21:01:29.659Z,58.23
2019-03-06T21:03:59.085Z,58.57
2019-03-06T21:06:33.514Z,59.29
2019-03-06T21:08:59.606Z,59.83
2019-03-06T21:11:29.058Z,59.29
2019-03-06T21:13:58.375Z,59.72
2019-03-06T21:16:28.008Z,60.09
2019-03-06T21:18:57.865Z,60.31
2019-03-06T21:21:27.147Z,60.26
2019-03-06T21:23:56.466Z,60.59
2019-03-06T21:26:25.814Z,61.18
2019-03-06T21:28:55.045Z,61.07
2019-03-06T21:31:24.320Z,61.45
2019-03-06T21:33:53.892Z,61.47
2019-03-06T21:36:23.369Z,62.22
2019-03-06T21:38:52.804Z,63.24
2019-03-06T21:41:22.477Z,63.44
2019-03-06T21:43:51.817Z,64.19
2019-03-06T21:46:21.403Z,64.28
2019-03-06T21:48:50.758Z,64.90
2019-03-06T21:51:20.059Z,64.91
2019-03-06T21:53:49.330Z,65.17
2019-03-06T21:56:18.623Z,65.83
2019-03-06T21:58:47.909Z,66.15
2019-03-06T22:01:17.377Z,66.44
2019-03-06T22:03:46.627Z,67.34
2019-03-06T22:06:17.653Z,67.36
2019-03-06T22:08:46.829Z,67.82
2019-03-06T22:11:16.033Z,68.17
2019-03-06T22:13:45.295Z,68.35
2019-03-06T22:16:14.528Z,68.53
2019-03-06T22:18:43.758Z,69.02
2019-03-06T22:21:12.976Z,69.29
2019-03-06T22:23:42.166Z,69.30
2019-03-06T22:26:11.362Z,69.23
2019-03-06T22:28:40.680Z,69.33
2019-03-06T22:31:09.882Z,69.21
2019-03-06T22:33:39.130Z,69.13
2019-03-06T22:36:08.328Z,69.14
2019-03-06T22:38:37.598Z,69.31
2019-03-06T22:41:06.845Z,69.35
2019-03-06T22:43:36.071Z,69.20
2019-03-06T22:46:05.271Z,69.30
2019-03-06T22:48:36.842Z,69.51
2019-03-06T22:51:05.427Z,69.90
2019-03-06T22:53:34.689Z,69.97
2019-03-06T22:56:04.052Z,69.77
2019-03-06T22:58:33.423Z,70.02
2019-03-06T23:01:11.627Z,70.26
2019-03-06T23:03:40.813Z,70.47
2019-03-06T23:06:10.018Z,70.70
2019-03-06T23:08:39.237Z,71.17
2019-03-06T23:11:08.849Z,71.21
2019-03-06T23:13:38.029Z,70.58
2019-03-06T23:16:07.201Z,71.29
2019-03-06T23:18:36.448Z,72.20
2019-03-06T23:21:05.724Z,71.72
2019-03-06T23:23:34.939Z,71.58
2019-03-06T23:26:04.265Z,72.00
2019-03-06T23:28:33.463Z,71.71
2019-03-06T23:31:02.643Z,71.57
2019-03-06T23:33:31.831Z,71.56
2019-03-06T23:36:01.010Z,70.61
2019-03-06T23:38:30.398Z,70.48
2019-03-06T23:40:59.568Z,70.37
2019-03-06T23:43:28.787Z,69.89
2019-03-06T23:45:57.963Z,69.85
2019-03-06T23:48:27.169Z,69.86
2019-03-06T23:50:56.351Z,70.35
2019-03-06T23:53:50.739Z,69.79
2019-03-06T23:56:19.929Z,69.37
2019-03-06T23:58:49.131Z,69.16
